sensor_id;sensor_type;location;lat;lon;timestamp;P1;durP1;ratioP1;P2;durP2;ratioP2
7831;SDS011;3961;42.058;25.586;2023-04-15T00:00:10;10.60;;;4.67;;
7831;SDS011;3961;42.058;25.586;2023-04-15T00:02:36;9.10;;;4.27;;
7831;SDS011;3961;42.058;25.586;2023-04-15T00:05:03;9.47;;;4.87;;
7831;SDS011;3961;42.058;25.586;2023-04-15T00:07:29;10.50;;;4.63;;
7831;SDS011;3961;42.058;25.586;2023-04-15T00:09:55;8.70;;;4.90;;
7831;SDS011;3961;42.058;25.586;2023-04-15T00:12:22;15.37;;;4.30;;
7831;SDS011;3961;42.058;25.586;2023-04-15T00:14:51;7.40;;;4.57;;
7831;SDS011;3961;42.058;25.586;2023-04-15T00:17:17;9.60;;;4.97;;
7831;SDS011;3961;42.058;25.586;2023-04-15T00:19:43;11.63;;;4.53;;
7831;SDS011;3961;42.058;25.586;2023-04-15T00:22:11;10.23;;;5.40;;
7831;SDS011;3961;42.058;25.586;2023-04-15T00:24:37;10.23;;;5.63;;
7831;SDS011;3961;42.058;25.586;2023-04-15T00:27:03;9.80;;;6.17;;
7831;SDS011;3961;42.058;25.586;2023-04-15T00:29:29;10.87;;;6.03;;
7831;SDS011;3961;42.058;25.586;2023-04-15T00:31:55;13.67;;;6.63;;
7831;SDS011;3961;42.058;25.586;2023-04-15T00:34:21;9.13;;;6.17;;
7831;SDS011;3961;42.058;25.586;2023-04-15T00:36:49;10.10;;;6.03;;
7831;SDS011;3961;42.058;25.586;2023-04-15T00:39:16;9.00;;;6.10;;
7831;SDS011;3961;42.058;25.586;2023-04-15T00:41:42;8.70;;;6.40;;
7831;SDS011;3961;42.058;25.586;2023-04-15T00:44:08;10.63;;;5.60;;
7831;SDS011;3961;42.058;25.586;2023-04-15T00:46:35;9.67;;;5.73;;
7831;SDS011;3961;42.058;25.586;2023-04-15T00:49:05;10.33;;;5.17;;
7831;SDS011;3961;42.058;25.586;2023-04-15T00:51:32;7.27;;;4.83;;
7831;SDS011;3961;42.058;25.586;2023-04-15T00:54:00;10.90;;;5.07;;
7831;SDS011;3961;42.058;25.586;2023-04-15T00:56:27;7.20;;;4.87;;
7831;SDS011;3961;42.058;25.586;2023-04-15T00:58:53;12.50;;;5.10;;
7831;SDS011;3961;42.058;25.586;2023-04-15T01:01:22;9.87;;;4.93;;
7831;SDS011;3961;42.058;25.586;2023-04-15T01:03:49;11.10;;;5.17;;
7831;SDS011;3961;42.058;25.586;2023-04-15T01:06:15;6.90;;;4.77;;
7831;SDS011;3961;42.058;25.586;2023-04-15T01:08:42;7.73;;;4.70;;
7831;SDS011;3961;42.058;25.586;2023-04-15T01:11:07;8.73;;;4.30;;
7831;SDS011;3961;42.058;25.586;2023-04-15T01:13:34;11.03;;;4.80;;
7831;SDS011;3961;42.058;25.586;2023-04-15T01:16:00;8.93;;;4.77;;
7831;SDS011;3961;42.058;25.586;2023-04-15T01:18:27;8.40;;;4.90;;
7831;SDS011;3961;42.058;25.586;2023-04-15T01:20:53;9.13;;;4.80;;
7831;SDS011;3961;42.058;25.586;2023-04-15T01:23:20;10.87;;;4.60;;
7831;SDS011;3961;42.058;25.586;2023-04-15T01:25:47;10.10;;;4.93;;
7831;SDS011;3961;42.058;25.586;2023-04-15T01:28:14;11.10;;;4.70;;
7831;SDS011;3961;42.058;25.586;2023-04-15T01:30:40;10.30;;;4.93;;
7831;SDS011;3961;42.058;25.586;2023-04-15T01:33:05;8.60;;;5.27;;
7831;SDS011;3961;42.058;25.586;2023-04-15T01:35:31;13.37;;;5.33;;
7831;SDS011;3961;42.058;25.586;2023-04-15T01:38:01;12.23;;;5.30;;
7831;SDS011;3961;42.058;25.586;2023-04-15T01:40:30;10.60;;;4.67;;
7831;SDS011;3961;42.058;25.586;2023-04-15T01:42:56;10.30;;;5.67;;
7831;SDS011;3961;42.058;25.586;2023-04-15T01:45:21;10.73;;;5.33;;
7831;SDS011;3961;42.058;25.586;2023-04-15T01:47:47;12.60;;;5.40;;
7831;SDS011;3961;42.058;25.586;2023-04-15T01:50:13;14.50;;;6.07;;
7831;SDS011;3961;42.058;25.586;2023-04-15T01:52:39;11.50;;;5.50;;
7831;SDS011;3961;42.058;25.586;2023-04-15T01:55:05;12.73;;;5.67;;
7831;SDS011;3961;42.058;25.586;2023-04-15T01:57:32;14.23;;;6.10;;
7831;SDS011;3961;42.058;25.586;2023-04-15T01:59:58;11.13;;;5.60;;
7831;SDS011;3961;42.058;25.586;2023-04-15T02:02:23;13.00;;;5.87;;
7831;SDS011;3961;42.058;25.586;2023-04-15T02:04:49;11.43;;;5.67;;
7831;SDS011;3961;42.058;25.586;2023-04-15T02:07:14;12.13;;;5.73;;
7831;SDS011;3961;42.058;25.586;2023-04-15T02:09:40;11.17;;;5.30;;
7831;SDS011;3961;42.058;25.586;2023-04-15T02:12:05;11.20;;;5.40;;
7831;SDS011;3961;42.058;25.586;2023-04-15T02:14:31;11.60;;;5.50;;
7831;SDS011;3961;42.058;25.586;2023-04-15T02:16:56;16.70;;;5.93;;
7831;SDS011;3961;42.058;25.586;2023-04-15T02:19:22;11.00;;;5.30;;
7831;SDS011;3961;42.058;25.586;2023-04-15T02:21:47;11.27;;;5.93;;
7831;SDS011;3961;42.058;25.586;2023-04-15T02:24:13;11.63;;;5.87;;
7831;SDS011;3961;42.058;25.586;2023-04-15T02:26:38;11.70;;;5.93;;
7831;SDS011;3961;42.058;25.586;2023-04-15T02:29:04;9.97;;;6.33;;
7831;SDS011;3961;42.058;25.586;2023-04-15T02:31:29;12.27;;;6.50;;
7831;SDS011;3961;42.058;25.586;2023-04-15T02:33:58;14.90;;;6.63;;
7831;SDS011;3961;42.058;25.586;2023-04-15T02:36:24;16.70;;;7.40;;
7831;SDS011;3961;42.058;25.586;2023-04-15T02:38:51;16.93;;;7.57;;
7831;SDS011;3961;42.058;25.586;2023-04-15T02:41:16;9.30;;;6.30;;
7831;SDS011;3961;42.058;25.586;2023-04-15T02:43:42;10.30;;;6.70;;
7831;SDS011;3961;42.058;25.586;2023-04-15T02:46:08;13.93;;;6.73;;
7831;SDS011;3961;42.058;25.586;2023-04-15T02:48:36;13.77;;;7.13;;
7831;SDS011;3961;42.058;25.586;2023-04-15T02:51:15;10.70;;;6.27;;
7831;SDS011;3961;42.058;25.586;2023-04-15T02:53:44;11.87;;;7.33;;
7831;SDS011;3961;42.058;25.586;2023-04-15T02:56:12;12.43;;;7.40;;
7831;SDS011;3961;42.058;25.586;2023-04-15T02:58:39;16.87;;;7.53;;
7831;SDS011;3961;42.058;25.586;2023-04-15T03:01:05;31.47;;;8.17;;
7831;SDS011;3961;42.058;25.586;2023-04-15T03:03:32;15.83;;;8.60;;
7831;SDS011;3961;42.058;25.586;2023-04-15T03:05:58;18.53;;;9.27;;
7831;SDS011;3961;42.058;25.586;2023-04-15T03:08:24;16.47;;;8.93;;
7831;SDS011;3961;42.058;25.586;2023-04-15T03:10:50;14.17;;;8.80;;
7831;SDS011;3961;42.058;25.586;2023-04-15T03:13:17;19.30;;;8.67;;
7831;SDS011;3961;42.058;25.586;2023-04-15T03:15:44;17.87;;;8.70;;
7831;SDS011;3961;42.058;25.586;2023-04-15T03:18:10;15.77;;;9.50;;
7831;SDS011;3961;42.058;25.586;2023-04-15T03:20:36;20.73;;;10.40;;
7831;SDS011;3961;42.058;25.586;2023-04-15T03:23:01;16.60;;;8.93;;
7831;SDS011;3961;42.058;25.586;2023-04-15T03:25:27;16.73;;;9.30;;
7831;SDS011;3961;42.058;25.586;2023-04-15T03:27:52;15.50;;;8.77;;
7831;SDS011;3961;42.058;25.586;2023-04-15T03:30:18;16.07;;;8.33;;
7831;SDS011;3961;42.058;25.586;2023-04-15T03:32:43;14.83;;;8.43;;
7831;SDS011;3961;42.058;25.586;2023-04-15T03:35:09;15.47;;;8.30;;
7831;SDS011;3961;42.058;25.586;2023-04-15T03:37:34;13.40;;;7.57;;
7831;SDS011;3961;42.058;25.586;2023-04-15T03:40:00;11.57;;;7.53;;
7831;SDS011;3961;42.058;25.586;2023-04-15T03:42:26;13.93;;;7.60;;
7831;SDS011;3961;42.058;25.586;2023-04-15T03:44:51;12.87;;;8.53;;
7831;SDS011;3961;42.058;25.586;2023-04-15T03:47:17;13.60;;;8.50;;
7831;SDS011;3961;42.058;25.586;2023-04-15T03:49:42;16.80;;;8.33;;
7831;SDS011;3961;42.058;25.586;2023-04-15T03:52:08;13.50;;;7.53;;
7831;SDS011;3961;42.058;25.586;2023-04-15T03:54:33;14.37;;;7.50;;
7831;SDS011;3961;42.058;25.586;2023-04-15T03:56:59;12.73;;;7.27;;
7831;SDS011;3961;42.058;25.586;2023-04-15T03:59:25;20.33;;;7.43;;
7831;SDS011;3961;42.058;25.586;2023-04-15T04:01:50;11.57;;;7.13;;
7831;SDS011;3961;42.058;25.586;2023-04-15T04:04:16;11.27;;;6.70;;
7831;SDS011;3961;42.058;25.586;2023-04-15T04:06:41;13.23;;;6.80;;
7831;SDS011;3961;42.058;25.586;2023-04-15T04:09:07;14.70;;;7.40;;
7831;SDS011;3961;42.058;25.586;2023-04-15T04:11:32;13.87;;;7.33;;
7831;SDS011;3961;42.058;25.586;2023-04-15T04:13:57;15.20;;;7.50;;
7831;SDS011;3961;42.058;25.586;2023-04-15T04:16:23;13.83;;;6.93;;
7831;SDS011;3961;42.058;25.586;2023-04-15T04:18:49;11.57;;;6.90;;
7831;SDS011;3961;42.058;25.586;2023-04-15T04:21:14;13.67;;;7.03;;
7831;SDS011;3961;42.058;25.586;2023-04-15T04:23:40;14.03;;;7.67;;
7831;SDS011;3961;42.058;25.586;2023-04-15T04:26:06;19.73;;;8.17;;
7831;SDS011;3961;42.058;25.586;2023-04-15T04:28:31;13.77;;;7.00;;
7831;SDS011;3961;42.058;25.586;2023-04-15T04:30:57;10.70;;;6.93;;
7831;SDS011;3961;42.058;25.586;2023-04-15T04:33:22;15.77;;;7.73;;
7831;SDS011;3961;42.058;25.586;2023-04-15T04:35:48;18.07;;;7.93;;
7831;SDS011;3961;42.058;25.586;2023-04-15T04:38:13;21.73;;;9.90;;
7831;SDS011;3961;42.058;25.586;2023-04-15T04:40:39;12.67;;;8.10;;
7831;SDS011;3961;42.058;25.586;2023-04-15T04:43:05;17.77;;;9.50;;
7831;SDS011;3961;42.058;25.586;2023-04-15T04:45:30;17.63;;;9.87;;
7831;SDS011;3961;42.058;25.586;2023-04-15T04:47:56;18.73;;;10.63;;
7831;SDS011;3961;42.058;25.586;2023-04-15T04:50:21;12.67;;;9.67;;
7831;SDS011;3961;42.058;25.586;2023-04-15T04:52:47;21.87;;;12.63;;
7831;SDS011;3961;42.058;25.586;2023-04-15T04:55:12;17.60;;;12.10;;
7831;SDS011;3961;42.058;25.586;2023-04-15T04:57:37;29.03;;;14.77;;
7831;SDS011;3961;42.058;25.586;2023-04-15T05:00:06;25.67;;;15.80;;
7831;SDS011;3961;42.058;25.586;2023-04-15T05:02:33;27.10;;;16.43;;
7831;SDS011;3961;42.058;25.586;2023-04-15T05:04:59;34.33;;;19.07;;
7831;SDS011;3961;42.058;25.586;2023-04-15T05:07:24;35.33;;;21.93;;
7831;SDS011;3961;42.058;25.586;2023-04-15T05:09:50;46.50;;;27.40;;
7831;SDS011;3961;42.058;25.586;2023-04-15T05:12:16;48.50;;;28.30;;
7831;SDS011;3961;42.058;25.586;2023-04-15T05:14:42;40.30;;;25.27;;
7831;SDS011;3961;42.058;25.586;2023-04-15T05:17:08;35.73;;;24.10;;
7831;SDS011;3961;42.058;25.586;2023-04-15T05:19:35;35.97;;;20.90;;
7831;SDS011;3961;42.058;25.586;2023-04-15T05:22:00;34.70;;;21.23;;
7831;SDS011;3961;42.058;25.586;2023-04-15T05:24:26;37.17;;;22.13;;
7831;SDS011;3961;42.058;25.586;2023-04-15T05:26:51;34.23;;;21.10;;
7831;SDS011;3961;42.058;25.586;2023-04-15T05:29:17;28.57;;;20.17;;
7831;SDS011;3961;42.058;25.586;2023-04-15T05:31:42;27.73;;;17.80;;
7831;SDS011;3961;42.058;25.586;2023-04-15T05:34:08;29.27;;;19.30;;
7831;SDS011;3961;42.058;25.586;2023-04-15T05:36:34;30.63;;;18.47;;
7831;SDS011;3961;42.058;25.586;2023-04-15T05:39:00;31.40;;;18.47;;
7831;SDS011;3961;42.058;25.586;2023-04-15T05:41:25;27.20;;;17.90;;
7831;SDS011;3961;42.058;25.586;2023-04-15T05:43:50;32.07;;;17.57;;
7831;SDS011;3961;42.058;25.586;2023-04-15T05:46:16;29.10;;;18.77;;
7831;SDS011;3961;42.058;25.586;2023-04-15T05:48:41;30.10;;;18.60;;
7831;SDS011;3961;42.058;25.586;2023-04-15T05:51:07;34.50;;;21.50;;
7831;SDS011;3961;42.058;25.586;2023-04-15T05:53:32;27.37;;;17.93;;
7831;SDS011;3961;42.058;25.586;2023-04-15T05:55:58;25.90;;;17.90;;
7831;SDS011;3961;42.058;25.586;2023-04-15T05:58:23;31.77;;;18.20;;
7831;SDS011;3961;42.058;25.586;2023-04-15T06:00:48;31.83;;;16.53;;
7831;SDS011;3961;42.058;25.586;2023-04-15T06:03:14;28.10;;;17.97;;
7831;SDS011;3961;42.058;25.586;2023-04-15T06:05:40;25.20;;;16.40;;
7831;SDS011;3961;42.058;25.586;2023-04-15T06:08:06;21.73;;;13.63;;
7831;SDS011;3961;42.058;25.586;2023-04-15T06:10:33;23.33;;;15.30;;
7831;SDS011;3961;42.058;25.586;2023-04-15T06:13:01;22.17;;;13.97;;
7831;SDS011;3961;42.058;25.586;2023-04-15T06:15:28;18.07;;;10.30;;
7831;SDS011;3961;42.058;25.586;2023-04-15T06:17:54;12.90;;;7.43;;
7831;SDS011;3961;42.058;25.586;2023-04-15T06:20:19;12.80;;;7.07;;
7831;SDS011;3961;42.058;25.586;2023-04-15T06:22:45;10.97;;;5.87;;
7831;SDS011;3961;42.058;25.586;2023-04-15T06:25:10;10.57;;;6.20;;
7831;SDS011;3961;42.058;25.586;2023-04-15T06:27:36;14.83;;;6.13;;
7831;SDS011;3961;42.058;25.586;2023-04-15T06:30:02;11.57;;;5.83;;
7831;SDS011;3961;42.058;25.586;2023-04-15T06:32:28;10.17;;;4.77;;
7831;SDS011;3961;42.058;25.586;2023-04-15T06:34:53;9.53;;;5.47;;
7831;SDS011;3961;42.058;25.586;2023-04-15T06:37:19;8.30;;;5.30;;
7831;SDS011;3961;42.058;25.586;2023-04-15T06:39:44;11.10;;;5.30;;
7831;SDS011;3961;42.058;25.586;2023-04-15T06:42:10;7.60;;;4.83;;
7831;SDS011;3961;42.058;25.586;2023-04-15T06:44:36;10.07;;;5.17;;
7831;SDS011;3961;42.058;25.586;2023-04-15T06:47:02;12.87;;;5.13;;
7831;SDS011;3961;42.058;25.586;2023-04-15T06:49:28;11.93;;;4.97;;
7831;SDS011;3961;42.058;25.586;2023-04-15T06:51:53;11.37;;;5.90;;
7831;SDS011;3961;42.058;25.586;2023-04-15T06:54:19;14.40;;;5.83;;
7831;SDS011;3961;42.058;25.586;2023-04-15T06:56:56;10.88;;;5.80;;
7831;SDS011;3961;42.058;25.586;2023-04-15T06:59:21;14.03;;;6.17;;
7831;SDS011;3961;42.058;25.586;2023-04-15T07:01:47;12.73;;;5.43;;
7831;SDS011;3961;42.058;25.586;2023-04-15T07:04:12;11.67;;;5.27;;
7831;SDS011;3961;42.058;25.586;2023-04-15T07:06:38;12.00;;;3.77;;
7831;SDS011;3961;42.058;25.586;2023-04-15T07:09:03;14.03;;;3.90;;
7831;SDS011;3961;42.058;25.586;2023-04-15T07:11:29;10.40;;;3.20;;
7831;SDS011;3961;42.058;25.586;2023-04-15T07:13:56;6.27;;;3.03;;
7831;SDS011;3961;42.058;25.586;2023-04-15T07:16:22;10.20;;;3.00;;
7831;SDS011;3961;42.058;25.586;2023-04-15T07:18:47;15.50;;;3.77;;
7831;SDS011;3961;42.058;25.586;2023-04-15T07:21:13;7.40;;;2.90;;
7831;SDS011;3961;42.058;25.586;2023-04-15T07:23:38;6.70;;;2.30;;
7831;SDS011;3961;42.058;25.586;2023-04-15T07:26:04;5.93;;;2.37;;
7831;SDS011;3961;42.058;25.586;2023-04-15T07:28:30;4.43;;;2.13;;
7831;SDS011;3961;42.058;25.586;2023-04-15T07:30:56;9.07;;;2.60;;
7831;SDS011;3961;42.058;25.586;2023-04-15T07:33:21;6.07;;;2.77;;
7831;SDS011;3961;42.058;25.586;2023-04-15T07:35:47;8.87;;;2.40;;
7831;SDS011;3961;42.058;25.586;2023-04-15T07:38:13;7.20;;;2.83;;
7831;SDS011;3961;42.058;25.586;2023-04-15T07:40:39;8.70;;;3.50;;
7831;SDS011;3961;42.058;25.586;2023-04-15T07:43:04;5.47;;;2.10;;
7831;SDS011;3961;42.058;25.586;2023-04-15T07:45:30;10.93;;;2.60;;
7831;SDS011;3961;42.058;25.586;2023-04-15T07:47:56;7.67;;;2.77;;
7831;SDS011;3961;42.058;25.586;2023-04-15T07:50:22;9.70;;;3.10;;
7831;SDS011;3961;42.058;25.586;2023-04-15T07:52:48;4.93;;;1.77;;
7831;SDS011;3961;42.058;25.586;2023-04-15T07:55:15;7.40;;;2.40;;
7831;SDS011;3961;42.058;25.586;2023-04-15T07:57:43;3.83;;;2.20;;
7831;SDS011;3961;42.058;25.586;2023-04-15T08:00:09;4.47;;;2.40;;
7831;SDS011;3961;42.058;25.586;2023-04-15T08:02:35;3.70;;;1.80;;
7831;SDS011;3961;42.058;25.586;2023-04-15T08:05:01;6.40;;;2.73;;
7831;SDS011;3961;42.058;25.586;2023-04-15T08:07:28;3.03;;;2.10;;
7831;SDS011;3961;42.058;25.586;2023-04-15T08:09:55;5.53;;;2.53;;
7831;SDS011;3961;42.058;25.586;2023-04-15T08:12:20;3.30;;;2.27;;
7831;SDS011;3961;42.058;25.586;2023-04-15T08:14:46;3.90;;;2.10;;
7831;SDS011;3961;42.058;25.586;2023-04-15T08:17:11;8.80;;;4.97;;
7831;SDS011;3961;42.058;25.586;2023-04-15T08:19:37;6.60;;;1.93;;
7831;SDS011;3961;42.058;25.586;2023-04-15T08:22:03;3.93;;;1.97;;
7831;SDS011;3961;42.058;25.586;2023-04-15T08:24:29;4.43;;;1.83;;
7831;SDS011;3961;42.058;25.586;2023-04-15T08:26:55;3.53;;;2.00;;
7831;SDS011;3961;42.058;25.586;2023-04-15T08:29:21;7.10;;;2.10;;
7831;SDS011;3961;42.058;25.586;2023-04-15T08:31:47;10.23;;;2.40;;
7831;SDS011;3961;42.058;25.586;2023-04-15T08:34:13;9.77;;;3.80;;
7831;SDS011;3961;42.058;25.586;2023-04-15T08:36:39;6.00;;;3.90;;
7831;SDS011;3961;42.058;25.586;2023-04-15T08:39:05;7.87;;;4.70;;
7831;SDS011;3961;42.058;25.586;2023-04-15T08:41:47;16.57;;;4.07;;
7831;SDS011;3961;42.058;25.586;2023-04-15T08:44:21;7.43;;;3.93;;
7831;SDS011;3961;42.058;25.586;2023-04-15T08:46:48;6.57;;;3.37;;
7831;SDS011;3961;42.058;25.586;2023-04-15T08:49:16;7.77;;;3.10;;
7831;SDS011;3961;42.058;25.586;2023-04-15T08:51:43;8.13;;;3.10;;
7831;SDS011;3961;42.058;25.586;2023-04-15T08:54:09;5.60;;;4.07;;
7831;SDS011;3961;42.058;25.586;2023-04-15T08:56:35;6.40;;;4.53;;
7831;SDS011;3961;42.058;25.586;2023-04-15T08:59:03;10.93;;;4.43;;
7831;SDS011;3961;42.058;25.586;2023-04-15T09:01:30;10.20;;;4.20;;
7831;SDS011;3961;42.058;25.586;2023-04-15T09:03:56;8.80;;;3.93;;
7831;SDS011;3961;42.058;25.586;2023-04-15T09:06:23;4.53;;;2.60;;
7831;SDS011;3961;42.058;25.586;2023-04-15T09:08:50;6.30;;;2.70;;
7831;SDS011;3961;42.058;25.586;2023-04-15T09:11:16;3.80;;;2.57;;
7831;SDS011;3961;42.058;25.586;2023-04-15T09:13:42;5.43;;;2.47;;
7831;SDS011;3961;42.058;25.586;2023-04-15T09:16:08;5.93;;;2.67;;
7831;SDS011;3961;42.058;25.586;2023-04-15T09:18:34;5.17;;;1.67;;
7831;SDS011;3961;42.058;25.586;2023-04-15T09:23:30;4.63;;;1.63;;
7831;SDS011;3961;42.058;25.586;2023-04-15T09:25:58;5.60;;;2.17;;
7831;SDS011;3961;42.058;25.586;2023-04-15T09:28:24;5.00;;;2.03;;
7831;SDS011;3961;42.058;25.586;2023-04-15T09:30:59;10.77;;;2.73;;
7831;SDS011;3961;42.058;25.586;2023-04-15T09:33:25;4.30;;;2.03;;
7831;SDS011;3961;42.058;25.586;2023-04-15T09:35:55;4.40;;;1.83;;
7831;SDS011;3961;42.058;25.586;2023-04-15T09:38:25;3.40;;;1.80;;
7831;SDS011;3961;42.058;25.586;2023-04-15T09:40:51;4.70;;;2.17;;
7831;SDS011;3961;42.058;25.586;2023-04-15T09:43:16;7.90;;;2.17;;
7831;SDS011;3961;42.058;25.586;2023-04-15T09:45:49;5.23;;;2.10;;
7831;SDS011;3961;42.058;25.586;2023-04-15T09:48:20;7.40;;;1.93;;
7831;SDS011;3961;42.058;25.586;2023-04-15T09:50:51;6.90;;;2.03;;
7831;SDS011;3961;42.058;25.586;2023-04-15T09:53:22;5.83;;;2.17;;
7831;SDS011;3961;42.058;25.586;2023-04-15T09:55:52;4.57;;;1.90;;
7831;SDS011;3961;42.058;25.586;2023-04-15T09:58:23;3.20;;;1.97;;
7831;SDS011;3961;42.058;25.586;2023-04-15T10:00:49;6.93;;;2.60;;
7831;SDS011;3961;42.058;25.586;2023-04-15T10:03:18;3.33;;;1.60;;
7831;SDS011;3961;42.058;25.586;2023-04-15T10:05:52;9.60;;;2.30;;
7831;SDS011;3961;42.058;25.586;2023-04-15T10:08:21;6.17;;;2.50;;
7831;SDS011;3961;42.058;25.586;2023-04-15T10:10:51;4.93;;;2.20;;
7831;SDS011;3961;42.058;25.586;2023-04-15T10:13:22;4.43;;;2.27;;
7831;SDS011;3961;42.058;25.586;2023-04-15T10:15:51;6.60;;;2.13;;
7831;SDS011;3961;42.058;25.586;2023-04-15T10:18:22;3.50;;;1.80;;
7831;SDS011;3961;42.058;25.586;2023-04-15T10:20:50;3.77;;;1.80;;
7831;SDS011;3961;42.058;25.586;2023-04-15T10:23:17;4.20;;;1.90;;
7831;SDS011;3961;42.058;25.586;2023-04-15T10:25:45;8.03;;;2.27;;
7831;SDS011;3961;42.058;25.586;2023-04-15T10:28:11;4.17;;;1.83;;
7831;SDS011;3961;42.058;25.586;2023-04-15T10:30:37;4.80;;;2.17;;
7831;SDS011;3961;42.058;25.586;2023-04-15T10:33:03;5.70;;;2.30;;
7831;SDS011;3961;42.058;25.586;2023-04-15T10:35:30;5.27;;;2.07;;
7831;SDS011;3961;42.058;25.586;2023-04-15T10:37:57;3.57;;;2.00;;
7831;SDS011;3961;42.058;25.586;2023-04-15T10:40:27;5.20;;;1.90;;
7831;SDS011;3961;42.058;25.586;2023-04-15T10:42:58;5.00;;;1.97;;
7831;SDS011;3961;42.058;25.586;2023-04-15T10:45:27;7.33;;;2.53;;
7831;SDS011;3961;42.058;25.586;2023-04-15T10:47:58;3.77;;;1.67;;
7831;SDS011;3961;42.058;25.586;2023-04-15T10:50:26;4.07;;;1.97;;
7831;SDS011;3961;42.058;25.586;2023-04-15T10:52:54;4.90;;;2.20;;
7831;SDS011;3961;42.058;25.586;2023-04-15T10:55:30;5.87;;;2.03;;
7831;SDS011;3961;42.058;25.586;2023-04-15T10:57:58;4.33;;;2.10;;
7831;SDS011;3961;42.058;25.586;2023-04-15T11:00:27;6.03;;;2.00;;
7831;SDS011;3961;42.058;25.586;2023-04-15T11:02:57;5.70;;;2.20;;
7831;SDS011;3961;42.058;25.586;2023-04-15T11:08:07;9.17;;;2.50;;
7831;SDS011;3961;42.058;25.586;2023-04-15T11:13:03;5.13;;;2.40;;
7831;SDS011;3961;42.058;25.586;2023-04-15T11:15:40;6.23;;;2.20;;
7831;SDS011;3961;42.058;25.586;2023-04-15T11:20:35;6.50;;;1.83;;
7831;SDS011;3961;42.058;25.586;2023-04-15T11:23:02;7.43;;;3.40;;
7831;SDS011;3961;42.058;25.586;2023-04-15T11:25:29;5.70;;;1.90;;
7831;SDS011;3961;42.058;25.586;2023-04-15T11:27:57;5.00;;;1.70;;
7831;SDS011;3961;42.058;25.586;2023-04-15T11:30:24;5.80;;;2.30;;
7831;SDS011;3961;42.058;25.586;2023-04-15T11:32:52;6.97;;;2.00;;
7831;SDS011;3961;42.058;25.586;2023-04-15T11:35:28;5.30;;;2.00;;
7831;SDS011;3961;42.058;25.586;2023-04-15T11:37:54;6.07;;;2.50;;
7831;SDS011;3961;42.058;25.586;2023-04-15T11:40:28;6.70;;;2.33;;
7831;SDS011;3961;42.058;25.586;2023-04-15T11:43:11;6.10;;;2.13;;
7831;SDS011;3961;42.058;25.586;2023-04-15T11:45:50;7.57;;;2.50;;
7831;SDS011;3961;42.058;25.586;2023-04-15T11:48:20;11.20;;;2.57;;
7831;SDS011;3961;42.058;25.586;2023-04-15T11:50:51;7.13;;;2.77;;
7831;SDS011;3961;42.058;25.586;2023-04-15T11:53:24;4.80;;;2.00;;
7831;SDS011;3961;42.058;25.586;2023-04-15T11:56:02;8.03;;;2.53;;
7831;SDS011;3961;42.058;25.586;2023-04-15T11:58:28;9.10;;;2.33;;
7831;SDS011;3961;42.058;25.586;2023-04-15T12:00:57;5.13;;;2.60;;
7831;SDS011;3961;42.058;25.586;2023-04-15T12:03:35;7.43;;;2.60;;
7831;SDS011;3961;42.058;25.586;2023-04-15T12:11:29;7.23;;;2.87;;
7831;SDS011;3961;42.058;25.586;2023-04-15T12:16:28;6.97;;;2.70;;
7831;SDS011;3961;42.058;25.586;2023-04-15T12:18:54;7.73;;;2.83;;
7831;SDS011;3961;42.058;25.586;2023-04-15T12:21:23;8.40;;;2.70;;
7831;SDS011;3961;42.058;25.586;2023-04-15T12:23:51;11.97;;;2.50;;
7831;SDS011;3961;42.058;25.586;2023-04-15T12:26:24;7.17;;;2.83;;
7831;SDS011;3961;42.058;25.586;2023-04-15T12:28:54;4.47;;;2.37;;
7831;SDS011;3961;42.058;25.586;2023-04-15T12:31:24;7.13;;;2.50;;
7831;SDS011;3961;42.058;25.586;2023-04-15T12:33:50;5.77;;;2.33;;
7831;SDS011;3961;42.058;25.586;2023-04-15T12:36:15;5.63;;;2.50;;
7831;SDS011;3961;42.058;25.586;2023-04-15T12:38:41;10.80;;;3.17;;
7831;SDS011;3961;42.058;25.586;2023-04-15T12:41:06;9.47;;;3.30;;
7831;SDS011;3961;42.058;25.586;2023-04-15T12:43:32;11.13;;;3.07;;
7831;SDS011;3961;42.058;25.586;2023-04-15T12:45:57;11.27;;;3.73;;
7831;SDS011;3961;42.058;25.586;2023-04-15T12:48:23;7.60;;;3.43;;
7831;SDS011;3961;42.058;25.586;2023-04-15T12:50:48;9.73;;;2.60;;
7831;SDS011;3961;42.058;25.586;2023-04-15T12:53:14;9.43;;;3.10;;
7831;SDS011;3961;42.058;25.586;2023-04-15T12:55:39;6.17;;;2.50;;
7831;SDS011;3961;42.058;25.586;2023-04-15T12:58:05;8.20;;;3.10;;
7831;SDS011;3961;42.058;25.586;2023-04-15T13:00:32;10.37;;;2.67;;
7831;SDS011;3961;42.058;25.586;2023-04-15T13:02:58;8.87;;;2.43;;
7831;SDS011;3961;42.058;25.586;2023-04-15T13:05:24;11.27;;;2.50;;
7831;SDS011;3961;42.058;25.586;2023-04-15T13:07:49;8.23;;;2.87;;
7831;SDS011;3961;42.058;25.586;2023-04-15T13:10:15;4.10;;;2.03;;
7831;SDS011;3961;42.058;25.586;2023-04-15T13:12:41;9.87;;;2.27;;
7831;SDS011;3961;42.058;25.586;2023-04-15T13:15:06;5.97;;;2.00;;
7831;SDS011;3961;42.058;25.586;2023-04-15T13:17:35;5.03;;;1.70;;
7831;SDS011;3961;42.058;25.586;2023-04-15T13:20:01;3.70;;;1.50;;
7831;SDS011;3961;42.058;25.586;2023-04-15T13:22:26;4.73;;;1.90;;
7831;SDS011;3961;42.058;25.586;2023-04-15T13:24:52;3.97;;;1.80;;
7831;SDS011;3961;42.058;25.586;2023-04-15T13:27:17;3.50;;;1.80;;
7831;SDS011;3961;42.058;25.586;2023-04-15T13:29:43;9.27;;;2.10;;
7831;SDS011;3961;42.058;25.586;2023-04-15T13:32:08;4.03;;;2.13;;
7831;SDS011;3961;42.058;25.586;2023-04-15T13:34:34;6.97;;;2.43;;
7831;SDS011;3961;42.058;25.586;2023-04-15T13:37:05;2.47;;;1.67;;
7831;SDS011;3961;42.058;25.586;2023-04-15T13:39:33;4.37;;;2.10;;
7831;SDS011;3961;42.058;25.586;2023-04-15T13:41:59;9.10;;;2.50;;
7831;SDS011;3961;42.058;25.586;2023-04-15T13:44:25;4.77;;;2.00;;
7831;SDS011;3961;42.058;25.586;2023-04-15T13:46:50;6.93;;;2.00;;
7831;SDS011;3961;42.058;25.586;2023-04-15T13:49:16;6.13;;;2.40;;
7831;SDS011;3961;42.058;25.586;2023-04-15T13:51:42;8.30;;;1.87;;
7831;SDS011;3961;42.058;25.586;2023-04-15T13:54:07;10.37;;;2.00;;
7831;SDS011;3961;42.058;25.586;2023-04-15T13:56:33;6.57;;;2.00;;
7831;SDS011;3961;42.058;25.586;2023-04-15T13:58:58;8.83;;;2.33;;
7831;SDS011;3961;42.058;25.586;2023-04-15T14:01:26;8.97;;;2.17;;
7831;SDS011;3961;42.058;25.586;2023-04-15T14:03:52;6.20;;;2.30;;
7831;SDS011;3961;42.058;25.586;2023-04-15T14:06:18;5.97;;;2.10;;
7831;SDS011;3961;42.058;25.586;2023-04-15T14:08:43;6.70;;;2.00;;
7831;SDS011;3961;42.058;25.586;2023-04-15T14:11:09;6.97;;;2.40;;
7831;SDS011;3961;42.058;25.586;2023-04-15T14:13:35;5.20;;;2.10;;
7831;SDS011;3961;42.058;25.586;2023-04-15T14:16:00;4.60;;;2.00;;
7831;SDS011;3961;42.058;25.586;2023-04-15T14:18:26;5.50;;;1.93;;
7831;SDS011;3961;42.058;25.586;2023-04-15T14:20:52;5.20;;;2.10;;
7831;SDS011;3961;42.058;25.586;2023-04-15T14:23:18;5.67;;;2.20;;
7831;SDS011;3961;42.058;25.586;2023-04-15T14:25:43;7.70;;;1.80;;
7831;SDS011;3961;42.058;25.586;2023-04-15T14:28:09;13.43;;;2.57;;
7831;SDS011;3961;42.058;25.586;2023-04-15T14:30:35;4.37;;;1.80;;
7831;SDS011;3961;42.058;25.586;2023-04-15T14:33:00;4.87;;;1.83;;
7831;SDS011;3961;42.058;25.586;2023-04-15T14:35:26;6.67;;;2.23;;
7831;SDS011;3961;42.058;25.586;2023-04-15T14:37:52;6.67;;;1.97;;
7831;SDS011;3961;42.058;25.586;2023-04-15T14:40:18;6.53;;;2.30;;
7831;SDS011;3961;42.058;25.586;2023-04-15T14:42:44;4.00;;;1.80;;
7831;SDS011;3961;42.058;25.586;2023-04-15T14:45:10;5.87;;;2.40;;
7831;SDS011;3961;42.058;25.586;2023-04-15T14:47:36;7.03;;;2.10;;
7831;SDS011;3961;42.058;25.586;2023-04-15T14:50:01;5.10;;;2.07;;
7831;SDS011;3961;42.058;25.586;2023-04-15T14:52:29;4.77;;;2.10;;
7831;SDS011;3961;42.058;25.586;2023-04-15T14:54:57;3.60;;;1.87;;
7831;SDS011;3961;42.058;25.586;2023-04-15T14:57:22;4.37;;;1.60;;
7831;SDS011;3961;42.058;25.586;2023-04-15T14:59:48;5.70;;;1.90;;
7831;SDS011;3961;42.058;25.586;2023-04-15T15:02:13;3.43;;;1.40;;
7831;SDS011;3961;42.058;25.586;2023-04-15T15:04:40;4.93;;;1.87;;
7831;SDS011;3961;42.058;25.586;2023-04-15T15:07:05;6.43;;;1.90;;